createdAt,value
2023-04-09T00:01:32.883Z,4.57
2023-04-09T00:04:02.137Z,4.15
2023-04-09T00:06:31.958Z,3.80
2023-04-09T00:09:01.136Z,3.15
2023-04-09T00:11:30.104Z,3.60
2023-04-09T00:14:01.376Z,3.67
2023-04-09T00:16:30.445Z,3.65
2023-04-09T00:18:59.454Z,3.47
2023-04-09T00:21:28.505Z,3.42
2023-04-09T00:23:57.511Z,3.10
2023-04-09T00:26:26.771Z,3.08
2023-04-09T00:28:56.167Z,3.20
2023-04-09T00:31:26.938Z,3.03
2023-04-09T00:33:55.969Z,2.85
2023-04-09T00:36:27.032Z,2.88
2023-04-09T00:38:56.354Z,2.80
2023-04-09T00:41:25.303Z,2.50
2023-04-09T00:43:56.871Z,2.80
2023-04-09T00:46:27.659Z,3.05
2023-04-09T00:48:57.024Z,2.90
2023-04-09T00:51:26.198Z,2.90
2023-04-09T00:53:55.690Z,2.70
2023-04-09T00:56:25.746Z,2.60
2023-04-09T00:58:55.162Z,2.63
2023-04-09T01:01:24.214Z,2.90
2023-04-09T01:03:55.166Z,2.72
2023-04-09T01:06:29.943Z,2.70
2023-04-09T01:09:09.343Z,2.85
2023-04-09T01:11:44.837Z,2.70
2023-04-09T01:14:22.801Z,2.88
2023-04-09T01:16:58.597Z,3.15
2023-04-09T01:22:11.715Z,2.80
2023-04-09T01:24:53.062Z,2.83
2023-04-09T01:27:25.582Z,2.40
2023-04-09T01:29:56.948Z,2.85
2023-04-09T01:32:27.185Z,2.78
2023-04-09T01:34:57.216Z,3.00
2023-04-09T01:37:27.446Z,3.65
2023-04-09T01:39:56.553Z,3.97
2023-04-09T01:42:26.761Z,3.40
2023-04-09T01:44:57.987Z,3.85
2023-04-09T01:47:28.670Z,3.83
2023-04-09T01:49:57.721Z,3.60
2023-04-09T01:52:27.236Z,3.88
2023-04-09T01:54:56.425Z,4.10
2023-04-09T01:57:25.455Z,4.55
2023-04-09T01:59:55.723Z,3.80
2023-04-09T02:02:35.501Z,3.70
2023-04-09T02:05:08.479Z,3.90
2023-04-09T02:07:42.785Z,3.60
2023-04-09T02:10:13.900Z,3.42
2023-04-09T02:12:49.941Z,3.60
2023-04-09T02:17:50.071Z,3.60
2023-04-09T02:20:19.787Z,3.08
2023-04-09T02:22:49.336Z,2.90
2023-04-09T02:25:18.386Z,2.88
2023-04-09T02:27:47.477Z,2.95
2023-04-09T02:30:16.512Z,2.90
2023-04-09T02:32:45.592Z,3.20
2023-04-09T02:35:16.441Z,3.08
2023-04-09T02:37:45.470Z,3.08
2023-04-09T02:40:14.866Z,3.00
2023-04-09T02:42:43.872Z,3.15
2023-04-09T02:45:13.329Z,3.70
2023-04-09T02:47:42.381Z,3.53
2023-04-09T02:50:11.750Z,3.80
2023-04-09T02:52:42.529Z,3.58
2023-04-09T02:55:11.703Z,3.45
2023-04-09T02:57:40.682Z,3.65
2023-04-09T03:00:11.239Z,3.40
2023-04-09T03:02:40.483Z,3.13
2023-04-09T03:05:10.166Z,3.50
2023-04-09T03:07:39.157Z,3.45
2023-04-09T03:10:10.782Z,3.53
2023-04-09T03:12:39.851Z,3.60
2023-04-09T03:15:09.608Z,3.55
2023-04-09T03:17:38.658Z,3.20
2023-04-09T03:20:09.185Z,3.65
2023-04-09T03:22:38.630Z,3.47
2023-04-09T03:25:10.597Z,3.80
2023-04-09T03:27:39.554Z,3.70
2023-04-09T03:30:09.590Z,4.18
2023-04-09T03:32:38.664Z,3.92
2023-04-09T03:35:08.301Z,3.83
2023-04-09T03:37:37.308Z,3.85
2023-04-09T03:40:09.364Z,3.58
2023-04-09T03:42:38.382Z,3.90
2023-04-09T03:45:08.255Z,4.03
2023-04-09T03:47:37.538Z,4.20
2023-04-09T03:50:07.311Z,4.53
2023-04-09T03:52:36.324Z,4.30
2023-04-09T03:55:05.988Z,4.40
2023-04-09T03:57:36.687Z,4.20
2023-04-09T04:00:06.541Z,4.20
2023-04-09T04:02:35.775Z,3.95
2023-04-09T04:05:05.039Z,4.38
2023-04-09T04:07:34.829Z,4.32
2023-04-09T04:10:06.146Z,4.30
2023-04-09T04:12:36.843Z,4.18
2023-04-09T04:15:06.908Z,3.85
2023-04-09T04:17:36.404Z,4.32
2023-04-09T04:20:05.744Z,4.57
2023-04-09T04:22:36.561Z,4.63
2023-04-09T04:25:06.217Z,4.88
2023-04-09T04:27:36.964Z,4.65
2023-04-09T04:30:07.073Z,5.53
2023-04-09T04:32:36.250Z,4.88
2023-04-09T04:35:05.463Z,5.00
2023-04-09T04:37:34.449Z,5.50
2023-04-09T04:40:04.709Z,5.20
2023-04-09T04:42:33.654Z,5.20
2023-04-09T04:45:04.279Z,5.55
2023-04-09T04:47:34.301Z,5.20
2023-04-09T04:50:03.329Z,5.03
2023-04-09T04:52:32.323Z,5.00
2023-04-09T04:55:01.405Z,5.22
2023-04-09T04:57:30.338Z,5.07
2023-04-09T04:59:59.310Z,4.75
2023-04-09T05:02:30.051Z,4.88
2023-04-09T05:04:59.156Z,4.38
2023-04-09T05:07:28.156Z,5.40
2023-04-09T05:09:57.167Z,5.28
2023-04-09T05:12:26.164Z,5.32
2023-04-09T05:14:55.164Z,4.88
2023-04-09T05:17:25.517Z,5.22
2023-04-09T05:19:58.668Z,4.97
2023-04-09T05:22:28.125Z,4.90
2023-04-09T05:24:57.302Z,5.00
2023-04-09T05:27:26.885Z,5.28
2023-04-09T05:29:55.918Z,5.25
2023-04-09T05:32:24.943Z,5.32
2023-04-09T05:34:55.643Z,5.35
2023-04-09T05:37:24.729Z,4.78
2023-04-09T05:39:53.683Z,5.00
2023-04-09T05:42:23.067Z,5.65
2023-04-09T05:44:52.082Z,4.88
2023-04-09T05:47:22.905Z,4.70
2023-04-09T05:49:52.087Z,5.00
2023-04-09T05:52:23.271Z,4.97
2023-04-09T05:54:55.359Z,4.88
2023-04-09T05:57:24.369Z,4.80
2023-04-09T05:59:53.426Z,4.90
2023-04-09T06:02:22.630Z,5.15
2023-04-09T06:04:52.195Z,4.75
2023-04-09T06:07:23.116Z,5.05
2023-04-09T06:09:52.382Z,4.88
2023-04-09T06:12:21.398Z,4.72
2023-04-09T06:14:50.500Z,4.25
2023-04-09T06:17:19.467Z,4.10
2023-04-09T06:19:48.452Z,3.92
2023-04-09T06:22:17.472Z,4.43
2023-04-09T06:24:48.060Z,3.88
2023-04-09T06:27:19.906Z,4.05
2023-04-09T06:29:48.945Z,3.83
2023-04-09T06:32:17.993Z,3.72
2023-04-09T06:34:47.120Z,3.67
2023-04-09T06:37:16.899Z,3.85
2023-04-09T06:39:58.133Z,3.90
2023-04-09T06:42:30.304Z,3.75
2023-04-09T06:44:59.312Z,3.92
2023-04-09T06:47:28.348Z,4.13
2023-04-09T06:49:57.335Z,3.88
2023-04-09T06:52:26.473Z,3.60
2023-04-09T06:54:57.128Z,3.95
2023-04-09T06:57:27.214Z,4.32
2023-04-09T06:59:56.577Z,4.43
2023-04-09T07:02:25.807Z,4.40
2023-04-09T07:04:55.117Z,4.40
2023-04-09T07:07:25.648Z,4.93
2023-04-09T07:09:56.740Z,4.78
2023-04-09T07:12:28.940Z,4.55
2023-04-09T07:15:00.122Z,4.22
2023-04-09T07:17:29.325Z,4.32
2023-04-09T07:19:58.504Z,5.00
2023-04-09T07:22:30.271Z,5.03
2023-04-09T07:25:01.485Z,5.13
2023-04-09T07:27:30.789Z,5.40
2023-04-09T07:30:00.707Z,5.13
2023-04-09T07:32:29.935Z,5.53
2023-04-09T07:35:00.308Z,5.53
2023-04-09T07:37:29.320Z,5.90
2023-04-09T07:39:59.964Z,5.55
2023-04-09T07:42:29.150Z,6.10
2023-04-09T07:44:58.125Z,6.05
2023-04-09T07:47:27.851Z,6.40
2023-04-09T07:49:57.082Z,5.85
2023-04-09T07:52:26.597Z,6.53
2023-04-09T07:54:55.636Z,6.60
2023-04-09T07:57:26.308Z,6.20
2023-04-09T07:59:56.363Z,6.72
2023-04-09T08:02:25.603Z,6.43
2023-04-09T08:04:54.878Z,6.88
2023-04-09T08:07:23.996Z,6.32
2023-04-09T08:09:53.001Z,7.07
2023-04-09T08:12:22.163Z,7.20
2023-04-09T08:14:53.552Z,7.78
2023-04-09T08:17:23.105Z,6.80
2023-04-09T08:19:52.084Z,7.07
2023-04-09T08:22:21.045Z,7.75
2023-04-09T08:24:53.866Z,7.57
2023-04-09T08:27:23.263Z,7.10
2023-04-09T08:29:53.906Z,7.65
2023-04-09T08:32:23.110Z,8.05
2023-04-09T08:34:52.132Z,7.72
2023-04-09T08:37:21.140Z,8.18
2023-04-09T08:39:50.170Z,7.22
2023-04-09T08:42:20.743Z,7.55
2023-04-09T08:44:49.855Z,8.13
2023-04-09T08:47:21.539Z,8.07
2023-04-09T08:49:51.065Z,8.95
2023-04-09T08:52:22.792Z,8.07
2023-04-09T08:54:52.946Z,9.50
2023-04-09T08:57:22.018Z,9.15
2023-04-09T08:59:51.077Z,8.57
2023-04-09T09:02:21.781Z,8.93
2023-04-09T09:04:51.975Z,9.38
2023-04-09T09:07:21.010Z,9.75
2023-04-09T09:09:54.408Z,9.40
2023-04-09T09:12:39.316Z,9.95
2023-04-09T09:15:27.869Z,10.40
2023-04-09T09:17:59.937Z,9.68
2023-04-09T09:20:29.726Z,10.38
2023-04-09T09:22:58.828Z,10.18
2023-04-09T09:25:27.924Z,10.48
2023-04-09T09:28:07.710Z,10.45
2023-04-09T09:30:38.216Z,10.20
2023-04-09T09:33:10.461Z,10.90
2023-04-09T09:35:52.849Z,10.63
2023-04-09T09:38:22.185Z,10.88
2023-04-09T09:40:51.419Z,9.85
2023-04-09T09:43:20.580Z,10.98
2023-04-09T09:45:49.979Z,11.00
2023-04-09T09:48:20.734Z,10.98
2023-04-09T09:50:52.132Z,11.45
2023-04-09T09:53:28.101Z,11.57
2023-04-09T09:56:00.359Z,11.27
2023-04-09T09:58:37.656Z,11.75
2023-04-09T10:01:11.626Z,13.00
2023-04-09T10:03:44.990Z,12.77
2023-04-09T10:06:15.756Z,12.57
2023-04-09T10:08:45.181Z,12.93
2023-04-09T10:11:14.188Z,12.05
2023-04-09T10:13:50.684Z,12.95
2023-04-09T10:16:20.222Z,12.60
2023-04-09T10:18:51.372Z,13.18
2023-04-09T10:21:29.496Z,12.95
2023-04-09T10:23:59.707Z,11.77
2023-04-09T10:26:28.786Z,11.73
2023-04-09T10:29:09.087Z,12.18
2023-04-09T10:31:56.076Z,10.73
2023-04-09T10:34:29.575Z,11.05
2023-04-09T10:37:00.562Z,10.40
2023-04-09T10:39:32.796Z,9.77
2023-04-09T10:42:05.678Z,9.45
2023-04-09T10:44:36.919Z,9.27
2023-04-09T10:47:07.078Z,9.55
2023-04-09T10:49:40.450Z,8.65
2023-04-09T10:52:12.453Z,8.85
2023-04-09T10:54:49.584Z,7.93
2023-04-09T10:57:21.560Z,8.25
2023-04-09T10:59:51.928Z,8.52
2023-04-09T11:03:02.577Z,8.40
2023-04-09T11:05:35.994Z,8.43
2023-04-09T11:08:10.360Z,8.60
2023-04-09T11:10:40.138Z,8.20
2023-04-09T11:13:13.394Z,8.82
2023-04-09T11:15:42.768Z,8.45
2023-04-09T11:18:15.274Z,8.68
2023-04-09T11:20:47.007Z,8.60
2023-04-09T11:23:17.088Z,8.65
2023-04-09T11:25:51.674Z,8.23
2023-04-09T11:28:21.353Z,8.00
2023-04-09T11:30:52.474Z,8.35
2023-04-09T11:33:21.785Z,8.02
2023-04-09T11:35:52.962Z,7.05
2023-04-09T11:38:21.984Z,7.20
2023-04-09T11:40:52.094Z,7.50
2023-04-09T11:43:21.675Z,7.25
2023-04-09T11:45:51.299Z,7.28
2023-04-09T11:48:22.482Z,8.05
2023-04-09T11:50:53.536Z,7.47
2023-04-09T11:53:23.889Z,6.82
2023-04-09T11:55:54.237Z,7.43
2023-04-09T11:58:25.712Z,7.30
2023-04-09T12:00:59.610Z,7.78
2023-04-09T12:03:31.488Z,7.50
2023-04-09T12:06:04.369Z,7.57
2023-04-09T12:08:35.978Z,6.68
2023-04-09T12:11:12.812Z,7.10
2023-04-09T12:13:45.486Z,7.32
2023-04-09T12:16:15.204Z,7.53
2023-04-09T12:18:44.296Z,7.55
2023-04-09T12:21:15.117Z,8.70
2023-04-09T12:23:44.408Z,7.25
2023-04-09T12:26:13.985Z,6.95
2023-04-09T12:28:42.961Z,7.88
2023-04-09T12:31:12.782Z,7.40
2023-04-09T12:33:42.049Z,7.40
2023-04-09T12:36:11.159Z,7.32
2023-04-09T12:38:41.881Z,7.40
2023-04-09T12:41:10.882Z,7.43
2023-04-09T12:43:40.035Z,7.72
2023-04-09T12:46:09.153Z,7.38
2023-04-09T12:48:38.366Z,8.00
2023-04-09T12:51:07.963Z,7.88
2023-04-09T12:53:37.012Z,7.85
2023-04-09T12:56:08.617Z,8.20
2023-04-09T12:58:38.666Z,9.30
2023-04-09T13:01:08.163Z,8.18
2023-04-09T13:03:37.548Z,10.20
2023-04-09T13:06:07.655Z,12.65
2023-04-09T13:08:36.769Z,17.55
2023-04-09T13:11:07.743Z,18.45
2023-04-09T13:13:36.697Z,21.25
2023-04-09T13:16:05.954Z,19.55
2023-04-09T13:18:34.941Z,23.08
2023-04-09T13:21:04.000Z,22.15
2023-04-09T13:23:33.002Z,21.38
2023-04-09T13:26:02.206Z,22.17
2023-04-09T13:28:32.809Z,20.92
2023-04-09T13:31:01.797Z,21.40
2023-04-09T13:33:30.804Z,20.83
2023-04-09T13:35:59.860Z,20.58
2023-04-09T13:38:28.946Z,19.67
2023-04-09T13:40:58.046Z,23.13
2023-04-09T13:43:29.175Z,22.73
2023-04-09T13:45:59.990Z,23.42
2023-04-09T13:48:28.963Z,21.98
2023-04-09T13:50:58.641Z,21.60
2023-04-09T13:53:27.876Z,22.20
2023-04-09T13:55:57.301Z,22.30
2023-04-09T13:58:26.688Z,21.30
2023-04-09T14:00:55.792Z,19.85
2023-04-09T14:03:26.819Z,19.55
2023-04-09T14:05:55.901Z,19.83
2023-04-09T14:08:25.074Z,19.42
2023-04-09T14:10:54.136Z,20.00
2023-04-09T14:13:23.116Z,19.88
2023-04-09T14:15:52.220Z,19.83
2023-04-09T14:18:21.253Z,19.52
2023-04-09T14:20:52.044Z,20.08
2023-04-09T14:23:21.102Z,21.20
2023-04-09T14:25:50.100Z,20.17
2023-04-09T14:28:19.371Z,21.83
2023-04-09T14:30:48.385Z,21.10
2023-04-09T14:33:17.469Z,21.00
2023-04-09T14:35:46.667Z,22.17
2023-04-09T14:38:18.623Z,21.13
2023-04-09T14:40:47.693Z,20.65
2023-04-09T14:43:16.781Z,19.58
2023-04-09T14:45:45.738Z,19.83
2023-04-09T14:48:14.768Z,21.50
2023-04-09T14:50:43.990Z,20.75
2023-04-09T14:53:13.389Z,20.17
2023-04-09T14:55:44.006Z,19.33
2023-04-09T14:58:13.017Z,18.88
2023-04-09T15:00:42.225Z,20.02
2023-04-09T15:03:11.948Z,20.63
2023-04-09T15:05:41.691Z,19.70
2023-04-09T15:08:10.796Z,19.42
2023-04-09T15:10:40.373Z,19.15
2023-04-09T15:13:11.108Z,17.67
2023-04-09T15:15:44.912Z,18.30
2023-04-09T15:18:13.894Z,19.20
2023-04-09T15:20:44.158Z,18.77
2023-04-09T15:23:13.196Z,18.90
2023-04-09T15:25:42.158Z,18.38
2023-04-09T15:28:12.945Z,18.77
2023-04-09T15:30:42.703Z,19.20
2023-04-09T15:33:11.765Z,18.65
2023-04-09T15:35:40.839Z,17.63
2023-04-09T15:38:09.830Z,16.90
2023-04-09T15:40:40.830Z,18.48
2023-04-09T15:43:11.462Z,18.15
2023-04-09T15:45:40.584Z,18.52
2023-04-09T15:48:09.869Z,17.42
2023-04-09T15:50:39.252Z,17.38
2023-04-09T15:53:08.242Z,18.38
2023-04-09T15:55:37.425Z,18.05
2023-04-09T15:58:06.691Z,17.92
2023-04-09T16:00:37.404Z,17.80
2023-04-09T16:03:06.390Z,18.20
2023-04-09T16:05:35.376Z,19.35
2023-04-09T16:08:04.575Z,18.90
2023-04-09T16:10:33.566Z,17.95
2023-04-09T16:13:03.939Z,18.98
2023-04-09T16:15:33.118Z,17.45
2023-04-09T16:18:03.846Z,17.95
2023-04-09T16:20:33.319Z,18.75
2023-04-09T16:23:02.307Z,18.85
2023-04-09T16:25:31.503Z,19.27
2023-04-09T16:28:00.536Z,17.50
2023-04-09T16:30:31.689Z,18.90
2023-04-09T16:33:03.524Z,17.60
2023-04-09T16:35:32.557Z,17.67
2023-04-09T16:38:01.631Z,17.95
2023-04-09T16:40:30.690Z,17.40
2023-04-09T16:42:59.708Z,16.50
2023-04-09T16:45:28.844Z,16.63
2023-04-09T16:47:57.927Z,15.63
2023-04-09T16:50:28.594Z,17.20
2023-04-09T16:52:57.622Z,16.23
2023-04-09T16:55:26.859Z,15.98
2023-04-09T16:57:57.629Z,15.15
2023-04-09T17:00:26.830Z,13.82
2023-04-09T17:02:57.472Z,14.55
2023-04-09T17:05:28.360Z,14.35
2023-04-09T17:07:58.051Z,13.85
2023-04-09T17:10:27.996Z,15.65
2023-04-09T17:12:57.252Z,13.27
2023-04-09T17:15:26.539Z,14.63
2023-04-09T17:17:55.635Z,12.57
2023-04-09T17:20:25.139Z,13.88
2023-04-09T17:22:55.816Z,12.90
2023-04-09T17:25:24.898Z,14.02
2023-04-09T17:27:55.355Z,11.88
2023-04-09T17:30:24.448Z,12.40
2023-04-09T17:32:53.474Z,13.60
2023-04-09T17:35:22.674Z,13.18
2023-04-09T17:37:51.817Z,12.48
2023-04-09T17:40:23.483Z,12.98
2023-04-09T17:42:52.514Z,16.65
2023-04-09T17:45:21.828Z,16.45
2023-04-09T17:47:51.987Z,17.85
2023-04-09T17:50:21.162Z,15.00
2023-04-09T17:52:50.197Z,16.65
2023-04-09T17:55:19.427Z,14.27
2023-04-09T17:57:50.161Z,14.65
2023-04-09T18:00:19.662Z,13.48
2023-04-09T18:02:49.258Z,13.10
2023-04-09T18:05:18.671Z,16.63
2023-04-09T18:07:47.844Z,17.98
2023-04-09T18:10:16.944Z,17.13
2023-04-09T18:12:46.573Z,19.45
2023-04-09T18:15:19.424Z,13.32
2023-04-09T18:17:48.565Z,15.13
2023-04-09T18:20:17.644Z,15.50
2023-04-09T18:22:47.127Z,14.52
2023-04-09T18:25:16.635Z,18.38
2023-04-09T18:27:45.618Z,16.85
2023-04-09T18:30:16.533Z,16.92
2023-04-09T18:32:45.552Z,15.40
2023-04-09T18:35:14.823Z,14.57
2023-04-09T18:37:43.854Z,16.02
2023-04-09T18:40:16.214Z,15.60
2023-04-09T18:42:45.202Z,17.10
2023-04-09T18:45:14.244Z,14.55
2023-04-09T18:47:45.004Z,13.73
2023-04-09T18:50:19.461Z,13.45
2023-04-09T18:52:48.517Z,14.70
2023-04-09T18:55:18.958Z,16.80
2023-04-09T18:57:48.150Z,14.55
2023-04-09T19:00:17.353Z,15.95
2023-04-09T19:02:48.684Z,14.57
2023-04-09T19:05:18.432Z,15.50
2023-04-09T19:07:47.379Z,14.50
2023-04-09T19:10:16.408Z,15.30
2023-04-09T19:12:51.729Z,14.95
2023-04-09T19:15:20.842Z,15.23
2023-04-09T19:17:51.747Z,15.35
2023-04-09T19:20:21.090Z,14.30
2023-04-09T19:22:51.068Z,14.82
2023-04-09T19:25:20.467Z,15.05
2023-04-09T19:27:49.554Z,15.70
2023-04-09T19:30:18.561Z,14.73
2023-04-09T19:32:47.795Z,15.88
2023-04-09T19:35:18.492Z,16.08
2023-04-09T19:37:47.538Z,13.70
2023-04-09T19:40:18.748Z,14.15
2023-04-09T19:42:47.773Z,13.32
2023-04-09T19:45:16.896Z,13.85
2023-04-09T19:47:45.983Z,15.80
2023-04-09T19:50:15.247Z,14.23
2023-04-09T19:52:45.845Z,14.20
2023-04-09T19:55:14.964Z,12.63
2023-04-09T19:57:45.102Z,13.48
2023-04-09T20:00:18.233Z,13.88
2023-04-09T20:02:47.396Z,13.25
2023-04-09T20:05:16.695Z,14.05
2023-04-09T20:07:47.423Z,12.95
2023-04-09T20:10:17.155Z,12.75
2023-04-09T20:12:49.370Z,13.50
2023-04-09T20:15:20.905Z,13.90
2023-04-09T20:17:50.218Z,12.02
2023-04-09T20:20:20.716Z,12.73
2023-04-09T20:22:56.129Z,11.95
2023-04-09T20:25:26.413Z,11.68
2023-04-09T20:27:55.860Z,12.73
2023-04-09T20:30:24.912Z,12.13
2023-04-09T20:32:53.992Z,11.30
2023-04-09T20:35:23.010Z,13.13
2023-04-09T20:37:55.213Z,10.88
2023-04-09T20:40:25.106Z,10.80
2023-04-09T20:42:54.148Z,12.00
2023-04-09T20:45:23.212Z,15.00
2023-04-09T20:47:53.844Z,12.13
2023-04-09T20:50:22.983Z,10.73
2023-04-09T20:52:53.737Z,12.25
2023-04-09T20:55:23.105Z,10.20
2023-04-09T20:57:52.796Z,11.27
2023-04-09T21:00:21.765Z,10.85
2023-04-09T21:02:50.989Z,9.77
2023-04-09T21:05:24.004Z,10.80
2023-04-09T21:07:55.202Z,10.35
2023-04-09T21:10:24.268Z,8.98
2023-04-09T21:12:53.220Z,8.68
2023-04-09T21:15:22.209Z,9.30
2023-04-09T21:17:51.679Z,11.00
2023-04-09T21:20:20.965Z,9.77
2023-04-09T21:22:50.243Z,8.07
2023-04-09T21:25:21.033Z,9.15
2023-04-09T21:27:50.007Z,9.25
2023-04-09T21:30:18.987Z,9.70
2023-04-09T21:32:47.977Z,9.20
2023-04-09T21:35:16.986Z,8.27
2023-04-09T21:37:45.938Z,8.65
2023-04-09T21:40:16.076Z,8.30
2023-04-09T21:42:48.425Z,8.82
2023-04-09T21:45:17.767Z,8.63
2023-04-09T21:47:46.970Z,7.97
2023-04-09T21:50:16.099Z,8.70
2023-04-09T21:52:46.902Z,7.80
2023-04-09T21:55:16.225Z,7.40
2023-04-09T21:57:45.209Z,9.05
2023-04-09T22:00:17.445Z,8.40
2023-04-09T22:02:46.920Z,7.88
2023-04-09T22:05:16.474Z,9.38
2023-04-09T22:07:46.091Z,7.80
2023-04-09T22:10:15.113Z,8.73
2023-04-09T22:12:44.146Z,8.35
2023-04-09T22:15:15.482Z,9.70
2023-04-09T22:17:44.618Z,9.07
2023-04-09T22:20:13.749Z,8.63
2023-04-09T22:22:43.331Z,9.90
2023-04-09T22:25:13.109Z,9.73
2023-04-09T22:27:42.510Z,9.57
2023-04-09T22:30:11.973Z,9.55
2023-04-09T22:32:42.688Z,10.00
2023-04-09T22:35:15.820Z,11.23
2023-04-09T22:37:44.865Z,10.60
2023-04-09T22:40:15.632Z,11.13
2023-04-09T22:42:44.997Z,10.98
2023-04-09T22:45:14.589Z,12.20
2023-04-09T22:47:45.325Z,11.07
2023-04-09T22:50:14.852Z,10.38
2023-04-09T22:52:43.855Z,10.82
2023-04-09T22:55:14.473Z,10.93
2023-04-09T22:57:45.043Z,10.15
2023-04-09T23:00:15.285Z,10.02
2023-04-09T23:02:48.235Z,9.75
2023-04-09T23:05:18.408Z,10.13
2023-04-09T23:07:47.645Z,10.10
2023-04-09T23:10:18.237Z,10.35
2023-04-09T23:12:47.174Z,9.05
2023-04-09T23:15:16.639Z,9.00
2023-04-09T23:17:47.327Z,9.35
2023-04-09T23:20:16.503Z,9.50
2023-04-09T23:22:47.186Z,9.00
2023-04-09T23:25:16.373Z,10.55
2023-04-09T23:27:45.481Z,10.32
2023-04-09T23:30:17.834Z,9.75
2023-04-09T23:32:48.892Z,10.60
2023-04-09T23:35:18.128Z,10.05
2023-04-09T23:37:47.495Z,9.32
2023-04-09T23:40:18.749Z,10.50
2023-04-09T23:42:48.909Z,9.98
2023-04-09T23:45:17.975Z,10.43
2023-04-09T23:47:48.652Z,10.90
2023-04-09T23:50:18.512Z,10.20
2023-04-09T23:52:49.356Z,11.10
2023-04-09T23:55:18.538Z,9.52
2023-04-09T23:57:47.481Z,9.82
